Open Full Screen Window  High Contrast Mode
Wind Gusting 00 knots
04
June 20, 2018 3:22 AM EDT
Weather Information
Wind Direction
  050 °
Wind Speed
  04 kt (5 mph)
Wind Gust
  00 kt (0 mph)
Altimeter
29.90 in
Visibility
10 SM
Temperature
19° C
66° F
Dewpoint
14° C
57° F
Humidity
73%
1hr Rain Fall
00.00 in.
24hr Rain Fall
00.00 in.
Sky Condition
Overcast @ 4,300 ft
VFR

METAR KONZ 200722Z AUTO 05004KT 10SM OVC043 19/14 A2990 RMK AO2 T01890143

FAA Disclaimer: The data displayed is for advisory purposes only and is not to be used for flight planning or operations.